createdAt,value
2022-10-25T00:01:02.714Z,1.30
2022-10-25T00:03:31.252Z,1.30
2022-10-25T00:05:59.331Z,1.20
2022-10-25T00:08:28.671Z,1.15
2022-10-25T00:10:57.542Z,1.23
2022-10-25T00:13:27.223Z,1.00
2022-10-25T00:16:05.489Z,0.98
2022-10-25T00:18:35.248Z,1.20
2022-10-25T00:21:05.804Z,1.20
2022-10-25T00:23:33.742Z,1.13
2022-10-25T00:26:02.690Z,1.40
2022-10-25T00:28:32.143Z,1.20
2022-10-25T00:31:01.343Z,1.50
2022-10-25T00:33:31.179Z,1.48
2022-10-25T00:36:05.254Z,1.20
2022-10-25T00:38:33.264Z,1.45
2022-10-25T00:41:01.651Z,1.38
2022-10-25T00:43:36.287Z,1.27
2022-10-25T00:46:11.094Z,1.30
2022-10-25T00:48:56.022Z,1.00
2022-10-25T00:51:29.863Z,1.55
2022-10-25T00:53:58.003Z,1.77
2022-10-25T00:56:29.494Z,1.20
2022-10-25T00:59:03.337Z,1.58
2022-10-25T01:01:31.404Z,1.40
2022-10-25T01:04:04.266Z,1.70
2022-10-25T01:06:37.838Z,1.52
2022-10-25T01:09:08.201Z,1.13
2022-10-25T01:11:55.717Z,1.20
2022-10-25T01:14:26.911Z,1.40
2022-10-25T01:17:10.533Z,1.48
2022-10-25T01:19:59.375Z,1.63
2022-10-25T01:22:33.534Z,1.65
2022-10-25T01:25:20.530Z,1.60
2022-10-25T01:28:00.919Z,1.42
2022-10-25T01:30:49.329Z,1.63
2022-10-25T01:33:23.748Z,1.58
2022-10-25T01:35:58.510Z,1.80
2022-10-25T01:38:34.458Z,1.77
2022-10-25T01:41:16.611Z,1.70
2022-10-25T01:43:54.584Z,2.00
2022-10-25T01:46:30.529Z,2.00
2022-10-25T01:49:02.591Z,1.83
2022-10-25T01:51:30.484Z,1.67
2022-10-25T01:53:58.566Z,1.55
2022-10-25T01:56:30.989Z,2.10
2022-10-25T01:59:19.620Z,1.70
2022-10-25T02:02:00.713Z,2.20
2022-10-25T02:04:40.614Z,1.60
2022-10-25T02:07:12.565Z,1.52
2022-10-25T02:09:48.673Z,2.03
2022-10-25T02:12:24.598Z,1.80
2022-10-25T02:14:59.000Z,1.83
2022-10-25T02:17:29.049Z,1.73
2022-10-25T02:20:00.258Z,1.55
2022-10-25T02:22:31.246Z,2.00
2022-10-25T02:25:01.323Z,1.92
2022-10-25T02:27:30.181Z,1.50
2022-10-25T02:29:58.225Z,2.00
2022-10-25T02:32:28.150Z,1.50
2022-10-25T02:34:56.195Z,1.48
2022-10-25T02:37:24.283Z,1.85
2022-10-25T02:39:52.733Z,1.45
2022-10-25T02:46:47.094Z,1.30
2022-10-25T02:49:16.340Z,2.00
2022-10-25T02:51:44.224Z,1.55
2022-10-25T02:54:12.149Z,1.98
2022-10-25T02:56:40.107Z,1.40
2022-10-25T02:59:08.175Z,1.70
2022-10-25T03:01:36.168Z,2.08
2022-10-25T03:04:04.254Z,1.67
2022-10-25T03:06:33.924Z,2.03
2022-10-25T03:09:02.049Z,2.00
2022-10-25T03:11:30.073Z,1.55
2022-10-25T03:13:57.984Z,1.90
2022-10-25T03:16:26.021Z,2.05
2022-10-25T03:18:54.109Z,1.52
2022-10-25T03:21:21.964Z,1.85
2022-10-25T03:23:51.427Z,1.80
2022-10-25T03:26:19.382Z,1.67
2022-10-25T03:28:47.547Z,1.90
2022-10-25T03:31:17.337Z,2.47
2022-10-25T03:33:45.412Z,1.65
2022-10-25T03:36:14.077Z,3.47
2022-10-25T03:38:42.127Z,2.15
2022-10-25T03:41:11.471Z,1.90
2022-10-25T03:43:39.338Z,1.95
2022-10-25T03:46:07.272Z,2.25
2022-10-25T03:48:35.346Z,1.67
2022-10-25T03:51:03.249Z,2.03
2022-10-25T03:53:31.246Z,1.90
2022-10-25T03:55:59.145Z,2.90
2022-10-25T03:58:28.456Z,1.80
2022-10-25T04:00:56.476Z,1.77
2022-10-25T04:03:24.403Z,2.17
2022-10-25T04:05:52.360Z,3.20
2022-10-25T04:08:20.304Z,2.42
2022-10-25T04:10:48.464Z,1.92
2022-10-25T04:13:16.426Z,2.22
2022-10-25T04:15:45.724Z,2.40
2022-10-25T04:18:13.759Z,2.00
2022-10-25T04:20:41.678Z,2.20
2022-10-25T04:23:09.613Z,2.10
2022-10-25T04:25:37.684Z,1.83
2022-10-25T04:28:05.977Z,2.38
2022-10-25T04:30:36.583Z,1.92
2022-10-25T04:33:08.586Z,1.90
2022-10-25T04:35:36.671Z,1.80
2022-10-25T04:38:04.828Z,1.20
2022-10-25T04:40:32.848Z,2.00
2022-10-25T04:43:02.366Z,1.98
2022-10-25T04:45:30.802Z,2.15
2022-10-25T04:47:58.841Z,2.00
2022-10-25T04:50:28.219Z,2.03
2022-10-25T04:53:01.116Z,1.90
2022-10-25T04:55:29.292Z,1.80
2022-10-25T04:57:57.575Z,2.47
2022-10-25T05:00:25.581Z,1.90
2022-10-25T05:02:54.510Z,1.85
2022-10-25T05:05:24.505Z,1.63
2022-10-25T05:07:59.455Z,2.08
2022-10-25T05:10:27.473Z,1.88
2022-10-25T05:12:55.925Z,1.38
2022-10-25T05:15:24.163Z,1.80
2022-10-25T05:17:52.154Z,1.90
2022-10-25T05:20:20.332Z,1.35
2022-10-25T05:22:48.543Z,1.95
2022-10-25T05:25:18.633Z,1.77
2022-10-25T05:27:46.802Z,2.38
2022-10-25T05:30:14.868Z,1.73
2022-10-25T05:32:43.590Z,1.75
2022-10-25T05:35:29.111Z,2.53
2022-10-25T05:37:57.228Z,2.00
2022-10-25T05:40:26.614Z,1.55
2022-10-25T05:43:03.687Z,1.60
2022-10-25T05:45:31.577Z,1.63
2022-10-25T05:47:59.591Z,1.60
2022-10-25T05:50:27.552Z,2.10
2022-10-25T05:52:55.592Z,1.73
2022-10-25T05:55:24.033Z,2.17
2022-10-25T05:57:53.542Z,1.80
2022-10-25T06:00:21.711Z,1.95
2022-10-25T06:02:49.770Z,1.80
2022-10-25T06:05:30.150Z,1.95
2022-10-25T06:08:00.812Z,2.60
2022-10-25T06:10:29.093Z,1.70
2022-10-25T06:13:02.479Z,2.22
2022-10-25T06:15:30.520Z,1.98
2022-10-25T06:17:58.486Z,2.67
2022-10-25T06:20:26.687Z,1.77
2022-10-25T06:22:54.672Z,2.00
2022-10-25T06:25:22.760Z,2.28
2022-10-25T06:27:50.717Z,2.00
2022-10-25T06:30:20.100Z,2.00
2022-10-25T06:32:48.695Z,2.20
2022-10-25T06:35:17.241Z,1.98
2022-10-25T06:37:45.231Z,1.75
2022-10-25T06:40:13.843Z,2.08
2022-10-25T06:42:42.531Z,2.08
2022-10-25T06:45:11.485Z,1.65
2022-10-25T06:47:40.763Z,3.35
2022-10-25T06:50:09.580Z,1.40
2022-10-25T06:52:37.514Z,1.90
2022-10-25T06:55:06.192Z,2.03
2022-10-25T06:57:38.487Z,1.83
2022-10-25T07:00:07.790Z,2.15
2022-10-25T07:02:35.742Z,2.28
2022-10-25T07:05:05.685Z,1.70
2022-10-25T07:07:33.657Z,1.70
2022-10-25T07:10:01.714Z,1.75
2022-10-25T07:12:30.350Z,1.95
2022-10-25T07:14:58.361Z,1.65
2022-10-25T07:17:26.324Z,1.70
2022-10-25T07:19:54.341Z,1.90
2022-10-25T07:22:23.773Z,1.90
2022-10-25T07:25:01.207Z,2.10
2022-10-25T07:27:32.141Z,1.98
2022-10-25T07:30:00.143Z,2.17
2022-10-25T07:32:28.175Z,2.25
2022-10-25T07:37:25.546Z,1.95
2022-10-25T07:39:53.549Z,2.13
2022-10-25T07:42:21.783Z,1.80
2022-10-25T07:44:49.890Z,2.15
2022-10-25T07:47:17.868Z,2.08
2022-10-25T07:49:45.912Z,2.03
2022-10-25T07:52:14.146Z,1.75
2022-10-25T07:57:11.794Z,2.63
2022-10-25T07:59:39.982Z,2.63
2022-10-25T08:02:09.639Z,2.03
2022-10-25T08:04:37.830Z,2.20
2022-10-25T08:07:05.800Z,2.20
2022-10-25T08:09:51.478Z,1.90
2022-10-25T08:12:22.566Z,1.70
2022-10-25T08:14:50.737Z,2.10
2022-10-25T08:17:18.835Z,1.90
2022-10-25T08:19:51.099Z,1.75
2022-10-25T08:22:19.558Z,1.58
2022-10-25T08:24:47.484Z,1.63
2022-10-25T08:27:16.992Z,1.90
2022-10-25T08:29:45.062Z,1.70
2022-10-25T08:32:13.012Z,2.33
2022-10-25T08:34:47.428Z,1.98
2022-10-25T08:37:15.653Z,1.65
2022-10-25T08:39:44.696Z,1.63
2022-10-25T08:42:24.617Z,1.88
2022-10-25T08:45:03.113Z,1.77
2022-10-25T08:47:36.793Z,2.13
2022-10-25T08:50:12.059Z,2.25
2022-10-25T08:52:42.406Z,1.70
2022-10-25T08:55:18.174Z,2.30
2022-10-25T08:57:50.938Z,1.95
2022-10-25T09:00:22.562Z,2.17
2022-10-25T09:02:54.048Z,2.97
2022-10-25T09:05:37.531Z,1.65
2022-10-25T09:08:19.065Z,1.70
2022-10-25T09:10:52.292Z,2.08
2022-10-25T09:16:11.189Z,1.67
2022-10-25T09:18:45.986Z,1.50
2022-10-25T09:21:22.624Z,1.60
2022-10-25T09:23:59.672Z,1.85
2022-10-25T09:26:40.945Z,1.80
2022-10-25T09:29:17.637Z,1.92
2022-10-25T09:31:49.158Z,1.65
2022-10-25T09:34:20.574Z,1.30
2022-10-25T09:36:51.644Z,1.35
2022-10-25T09:39:23.160Z,1.55
2022-10-25T09:41:54.718Z,1.40
2022-10-25T09:44:38.328Z,1.25
2022-10-25T09:47:15.900Z,1.63
2022-10-25T09:49:52.832Z,1.48
2022-10-25T09:52:26.956Z,2.00
2022-10-25T09:55:03.863Z,1.20
2022-10-25T09:57:34.737Z,1.58
2022-10-25T10:00:05.851Z,1.88
2022-10-25T10:02:42.908Z,1.33
2022-10-25T10:05:15.713Z,1.30
2022-10-25T10:07:46.067Z,1.10
2022-10-25T10:10:16.687Z,1.35
2022-10-25T10:12:49.828Z,1.10
2022-10-25T10:15:23.857Z,1.05
2022-10-25T10:18:36.473Z,1.70
2022-10-25T10:21:14.298Z,2.13
2022-10-25T10:23:52.483Z,3.53
2022-10-25T10:26:31.234Z,7.78
2022-10-25T10:29:16.701Z,1.60
2022-10-25T10:31:49.557Z,1.15
2022-10-25T10:34:24.875Z,1.00
2022-10-25T10:37:03.024Z,1.30
2022-10-25T10:39:31.191Z,1.10
2022-10-25T10:42:04.234Z,1.10
2022-10-25T10:44:34.483Z,1.35
2022-10-25T10:47:12.849Z,1.40
2022-10-25T10:49:44.026Z,1.35
2022-10-25T10:52:29.643Z,1.40
2022-10-25T10:54:58.830Z,1.10
2022-10-25T10:57:32.335Z,1.52
2022-10-25T11:00:01.518Z,1.15
2022-10-25T11:02:39.042Z,0.90
2022-10-25T11:05:26.045Z,1.23
2022-10-25T11:07:57.318Z,1.20
2022-10-25T11:10:33.302Z,1.10
2022-10-25T11:13:16.979Z,0.95
2022-10-25T11:16:33.323Z,1.20
2022-10-25T11:19:40.795Z,1.10
2022-10-25T11:22:32.912Z,1.50
2022-10-25T11:25:21.681Z,2.03
2022-10-25T11:28:00.685Z,1.30
2022-10-25T11:30:35.033Z,1.65
2022-10-25T11:33:17.740Z,1.40
2022-10-25T11:35:59.337Z,1.30
2022-10-25T11:38:40.844Z,2.17
2022-10-25T11:41:20.629Z,1.70
2022-10-25T11:44:04.751Z,1.77
2022-10-25T11:46:39.093Z,1.27
2022-10-25T11:49:18.579Z,1.60
2022-10-25T11:52:01.426Z,1.35
2022-10-25T11:54:40.043Z,1.40
2022-10-25T11:57:19.837Z,1.55
2022-10-25T12:00:00.846Z,1.85
2022-10-25T12:03:01.930Z,1.58
2022-10-25T12:05:34.184Z,1.80
2022-10-25T12:08:15.311Z,1.80
2022-10-25T12:10:49.606Z,2.05
2022-10-25T12:13:21.886Z,1.65
2022-10-25T12:15:52.144Z,1.63
2022-10-25T12:18:26.218Z,2.03
2022-10-25T12:20:55.667Z,1.50
2022-10-25T12:23:26.320Z,1.55
2022-10-25T12:25:59.954Z,1.77
2022-10-25T12:28:33.396Z,1.80
2022-10-25T12:31:09.343Z,1.63
2022-10-25T12:33:42.051Z,1.60
2022-10-25T12:36:24.780Z,1.90
2022-10-25T12:38:53.101Z,1.52
2022-10-25T12:41:25.626Z,1.42
2022-10-25T12:44:08.587Z,1.30
2022-10-25T12:46:55.564Z,1.60
2022-10-25T12:49:57.281Z,3.47
2022-10-25T12:52:35.451Z,1.58
2022-10-25T12:55:29.504Z,2.50
2022-10-25T12:58:10.889Z,2.40
2022-10-25T13:00:46.621Z,1.90
2022-10-25T13:03:40.458Z,1.15
2022-10-25T13:06:28.478Z,1.88
2022-10-25T13:09:03.082Z,1.67
2022-10-25T13:11:36.921Z,1.30
2022-10-25T13:14:18.006Z,1.58
2022-10-25T13:16:46.960Z,1.80
2022-10-25T13:19:42.804Z,1.42
2022-10-25T13:22:39.430Z,1.30
2022-10-25T13:25:19.049Z,1.70
2022-10-25T13:28:21.504Z,2.28
2022-10-25T13:30:50.900Z,1.50
2022-10-25T13:33:33.595Z,1.30
2022-10-25T13:36:06.463Z,1.88
2022-10-25T13:38:40.410Z,1.55
2022-10-25T13:41:16.393Z,1.85
2022-10-25T13:44:00.002Z,1.58
2022-10-25T13:46:33.770Z,1.85
2022-10-25T13:49:04.500Z,2.00
2022-10-25T13:51:51.192Z,1.60
2022-10-25T13:54:19.939Z,1.45
2022-10-25T13:56:52.974Z,1.50
2022-10-25T13:59:39.002Z,1.40
2022-10-25T14:02:20.655Z,1.70
2022-10-25T14:04:48.989Z,2.15
2022-10-25T14:07:49.470Z,1.40
2022-10-25T14:10:30.570Z,1.58
2022-10-25T14:13:15.735Z,1.65
2022-10-25T14:15:50.625Z,1.70
2022-10-25T14:18:23.945Z,1.50
2022-10-25T14:20:56.791Z,1.55
2022-10-25T14:23:29.976Z,1.42
2022-10-25T14:25:59.965Z,2.10
2022-10-25T14:28:29.702Z,1.38
2022-10-25T14:30:59.305Z,1.70
2022-10-25T14:33:31.020Z,1.00
2022-10-25T14:36:09.549Z,1.55
2022-10-25T14:38:49.937Z,1.88
2022-10-25T14:41:22.185Z,1.42
2022-10-25T14:43:50.305Z,1.98
2022-10-25T14:46:20.651Z,1.20
2022-10-25T14:48:54.463Z,1.45
2022-10-25T14:51:26.933Z,1.58
2022-10-25T14:53:58.873Z,1.90
2022-10-25T14:56:31.181Z,1.40
2022-10-25T14:59:04.780Z,1.30
2022-10-25T15:01:33.636Z,1.20
2022-10-25T15:04:03.531Z,1.73
2022-10-25T15:06:33.570Z,1.73
2022-10-25T15:09:37.375Z,1.75
2022-10-25T15:12:08.606Z,1.42
2022-10-25T15:14:37.086Z,1.50
2022-10-25T15:17:06.217Z,1.77
2022-10-25T15:20:01.488Z,1.98
2022-10-25T15:22:35.001Z,1.45
2022-10-25T15:25:03.329Z,1.38
2022-10-25T15:27:40.646Z,1.63
2022-10-25T15:30:37.310Z,1.65
2022-10-25T15:33:32.362Z,1.85
2022-10-25T15:36:03.603Z,1.77
2022-10-25T15:38:54.179Z,1.30
2022-10-25T15:41:21.622Z,1.13
2022-10-25T15:43:49.559Z,1.60
2022-10-25T15:46:25.828Z,1.33
2022-10-25T15:48:54.073Z,1.10
2022-10-25T15:51:25.211Z,1.45
2022-10-25T15:53:55.515Z,1.20
2022-10-25T15:56:26.194Z,1.20
2022-10-25T15:58:54.248Z,1.20
2022-10-25T16:01:22.632Z,1.27
2022-10-25T16:03:50.697Z,1.65
2022-10-25T16:06:18.788Z,1.30
2022-10-25T16:08:48.061Z,1.10
2022-10-25T16:11:20.116Z,1.20
2022-10-25T16:13:56.822Z,1.40
2022-10-25T16:16:39.931Z,1.23
2022-10-25T16:19:15.255Z,1.35
2022-10-25T16:21:44.237Z,4.45
2022-10-25T16:24:14.586Z,9.63
2022-10-25T16:26:45.436Z,6.22
2022-10-25T16:29:17.987Z,5.50
2022-10-25T16:31:46.318Z,6.65
2022-10-25T16:34:17.430Z,4.03
2022-10-25T16:36:46.142Z,2.20
2022-10-25T16:39:15.718Z,2.40
2022-10-25T16:41:45.254Z,1.85
2022-10-25T16:44:15.179Z,1.80
2022-10-25T16:46:43.697Z,1.98
2022-10-25T16:49:11.975Z,1.50
2022-10-25T16:51:41.165Z,1.45
2022-10-25T16:54:09.924Z,2.38
2022-10-25T16:56:42.632Z,1.88
2022-10-25T16:59:10.872Z,1.73
2022-10-25T17:01:41.194Z,2.00
2022-10-25T17:04:11.530Z,1.52
2022-10-25T17:06:42.084Z,2.38
2022-10-25T17:09:11.179Z,1.40
2022-10-25T17:11:39.276Z,2.03
2022-10-25T17:14:09.620Z,2.03
2022-10-25T17:16:42.715Z,2.63
2022-10-25T17:19:11.306Z,2.13
2022-10-25T17:21:40.975Z,2.40
2022-10-25T17:24:09.924Z,1.85
2022-10-25T17:26:39.124Z,2.05
2022-10-25T17:29:11.214Z,1.80
2022-10-25T17:31:43.571Z,1.67
2022-10-25T17:34:17.515Z,1.95
2022-10-25T17:36:53.653Z,1.85
2022-10-25T17:39:27.244Z,1.90
2022-10-25T17:41:56.661Z,1.75
2022-10-25T17:44:26.010Z,1.30
2022-10-25T17:46:54.872Z,1.90
2022-10-25T17:49:24.568Z,1.77
2022-10-25T17:51:52.743Z,1.45
2022-10-25T17:54:21.147Z,2.03
2022-10-25T17:56:55.882Z,2.35
2022-10-25T17:59:24.070Z,1.83
2022-10-25T18:01:53.960Z,2.15
2022-10-25T18:04:22.161Z,2.40
2022-10-25T18:06:50.253Z,2.20
2022-10-25T18:09:18.722Z,2.25
2022-10-25T18:11:47.335Z,1.88
2022-10-25T18:14:15.613Z,2.33
2022-10-25T18:16:43.814Z,2.80
2022-10-25T18:19:15.441Z,3.10
2022-10-25T18:21:43.707Z,3.35
2022-10-25T18:24:13.642Z,3.35
2022-10-25T18:26:42.015Z,2.15
2022-10-25T18:29:10.958Z,2.90
2022-10-25T18:31:39.424Z,3.15
2022-10-25T18:34:07.728Z,2.95
2022-10-25T18:36:37.167Z,3.70
2022-10-25T18:39:05.454Z,4.30
2022-10-25T18:41:35.075Z,3.50
2022-10-25T18:44:04.008Z,3.60
2022-10-25T18:46:32.885Z,3.33
2022-10-25T18:49:01.134Z,3.65
2022-10-25T18:51:29.827Z,3.10
2022-10-25T18:54:01.406Z,3.10
2022-10-25T18:56:31.477Z,3.00
2022-10-25T18:59:00.091Z,2.90
2022-10-25T19:01:32.723Z,3.55
2022-10-25T19:04:03.615Z,3.70
2022-10-25T19:06:32.137Z,3.65
2022-10-25T19:09:07.410Z,4.13
2022-10-25T19:11:35.511Z,4.10
2022-10-25T19:14:05.235Z,4.25
2022-10-25T19:16:33.266Z,4.70
2022-10-25T19:19:03.200Z,4.10
2022-10-25T19:21:31.127Z,4.10
2022-10-25T19:23:59.315Z,3.90
2022-10-25T19:26:28.773Z,3.83
2022-10-25T19:28:58.511Z,3.83
2022-10-25T19:31:27.928Z,3.50
2022-10-25T19:34:00.190Z,4.18
2022-10-25T19:36:28.396Z,4.40
2022-10-25T19:38:56.492Z,4.22
2022-10-25T19:41:25.663Z,2.88
2022-10-25T19:43:56.379Z,4.35
2022-10-25T19:46:24.397Z,3.20
2022-10-25T19:48:52.702Z,4.05
2022-10-25T19:51:21.683Z,3.70
2022-10-25T19:53:49.992Z,2.53
2022-10-25T19:56:22.572Z,2.80
2022-10-25T19:58:51.240Z,2.92
2022-10-25T20:01:23.497Z,2.58
2022-10-25T20:03:54.603Z,2.90
2022-10-25T20:06:25.454Z,2.75
2022-10-25T20:08:54.884Z,3.10
2022-10-25T20:11:23.820Z,3.33
2022-10-25T20:13:53.870Z,3.20
2022-10-25T20:18:57.288Z,3.20
2022-10-25T20:21:27.373Z,2.80
2022-10-25T20:23:56.931Z,3.30
2022-10-25T20:26:26.573Z,4.20
2022-10-25T20:28:55.304Z,3.25
2022-10-25T20:31:26.263Z,3.03
2022-10-25T20:33:54.847Z,2.88
2022-10-25T20:36:23.663Z,2.53
2022-10-25T20:38:51.994Z,2.63
2022-10-25T20:41:22.204Z,2.60
2022-10-25T20:43:52.014Z,2.90
2022-10-25T20:46:21.407Z,3.15
2022-10-25T20:48:54.461Z,3.20
2022-10-25T20:51:22.816Z,3.03
2022-10-25T20:53:50.926Z,3.13
2022-10-25T20:56:20.608Z,2.80
2022-10-25T20:58:48.821Z,2.72
2022-10-25T21:01:17.348Z,2.80
2022-10-25T21:03:45.498Z,3.15
2022-10-25T21:06:14.921Z,3.13
2022-10-25T21:08:43.107Z,2.85
2022-10-25T21:11:13.026Z,2.92
2022-10-25T21:13:41.298Z,2.75
2022-10-25T21:16:10.893Z,2.72
2022-10-25T21:18:39.358Z,3.03
2022-10-25T21:21:09.679Z,2.92
2022-10-25T21:23:39.215Z,3.63
2022-10-25T21:26:10.020Z,2.97
2022-10-25T21:28:39.898Z,3.67
2022-10-25T21:31:11.513Z,3.15
2022-10-25T21:33:41.655Z,2.08
2022-10-25T21:36:12.566Z,2.60
2022-10-25T21:38:42.175Z,2.95
2022-10-25T21:41:12.281Z,2.95
2022-10-25T21:43:44.681Z,2.63
2022-10-25T21:46:14.221Z,2.35
2022-10-25T21:48:43.772Z,2.60
2022-10-25T21:51:11.960Z,2.30
2022-10-25T21:53:40.020Z,2.90
2022-10-25T21:56:11.854Z,2.35
2022-10-25T21:58:40.069Z,2.88
2022-10-25T22:01:09.773Z,2.80
2022-10-25T22:03:38.038Z,2.40
2022-10-25T22:06:07.355Z,3.05
2022-10-25T22:08:35.835Z,2.30
2022-10-25T22:11:05.897Z,3.15
2022-10-25T22:13:35.670Z,2.60
2022-10-25T22:16:06.069Z,2.85
2022-10-25T22:18:34.735Z,3.20
2022-10-25T22:21:05.515Z,2.67
2022-10-25T22:23:34.009Z,3.35
2022-10-25T22:26:03.526Z,3.72
2022-10-25T22:28:33.338Z,3.47
2022-10-25T22:31:07.282Z,2.80
2022-10-25T22:33:36.162Z,2.90
2022-10-25T22:38:33.052Z,3.05
2022-10-25T22:41:02.944Z,3.20
2022-10-25T22:43:31.370Z,3.05
2022-10-25T22:46:02.855Z,2.63
2022-10-25T22:48:33.627Z,3.00
2022-10-25T22:51:02.259Z,2.80
2022-10-25T22:53:30.720Z,3.17
2022-10-25T22:56:01.344Z,2.97
2022-10-25T22:58:32.399Z,2.90
2022-10-25T23:03:34.475Z,3.60
2022-10-25T23:06:03.495Z,2.70
2022-10-25T23:08:32.254Z,3.00
2022-10-25T23:11:03.071Z,3.25
2022-10-25T23:13:33.123Z,3.70
2022-10-25T23:16:01.756Z,3.50
2022-10-25T23:18:30.580Z,2.78
2022-10-25T23:21:01.529Z,3.53
2022-10-25T23:23:35.590Z,3.80
2022-10-25T23:26:03.786Z,3.83
2022-10-25T23:28:32.652Z,3.80
2022-10-25T23:31:08.561Z,2.60
2022-10-25T23:33:37.504Z,3.53
2022-10-25T23:36:10.175Z,3.83
2022-10-25T23:38:38.531Z,3.30
2022-10-25T23:41:07.349Z,3.92
2022-10-25T23:43:36.064Z,3.53
2022-10-25T23:46:04.534Z,3.88
2022-10-25T23:48:33.237Z,4.18
2022-10-25T23:51:03.222Z,3.58
2022-10-25T23:53:33.092Z,3.58
2022-10-25T23:56:01.499Z,3.85
2022-10-25T23:58:32.452Z,3.60
